Terminal Aerodrome Forecast
Issued by NWS

Home | Current Version | Previous Version | Text Only | Print | Product List | Glossary On
Versions: 1 2 3 4 5 6 7 8 9 10 11 12 13 14 15 16
981
FTUS43 KMQT 242012 AAA
TAFCMX
TAF AMD
KCMX 242012Z 2420/2518 07012KT P6SM SCT005 BKN020
     FM242200 07008KT P6SM SCT025
     FM250400 07004KT 4SM BR SCT008
     FM250600 07004KT 1/2SM FG VV002
     FM251300 07004KT 2SM BR BKN003
     FM251400 10009KT P6SM SCT003=

USA.gov is the U.S. government's official web portal to all federal, state and local government web resources and services.